Time;durP1;ratioP1;P1;durP2;ratioP2;P2;SDS_P1;SDS_P2;PMS_P1;PMS_P2;Temp;Humidity;BMP_temperature;BMP_pressure;BME280_temperature;BME280_humidity;BME280_pressure;Samples;Min_cycle;Max_cycle;Signal;HPM_P1;HPM_P2
2022/08/03 00:01:10;;;;;;;3.00;1.08;;;;;20.90;101094.00;;;;10454116;28;20265;-79
2022/08/03 00:06:12;;;;;;;2.85;1.10;;;;;20.90;101089.00;;;;10448691;28;20233;-79
2022/08/03 00:11:14;;;;;;;4.18;1.35;;;;;21.00;101094.00;;;;10443711;28;20235;-79
2022/08/03 00:16:16;;;;;;;3.53;1.17;;;;;20.90;101077.00;;;;10431157;28;20217;-79
2022/08/03 00:21:18;;;;;;;1.10;1.00;;;;;20.80;101081.00;;;;10448992;28;20194;-79
2022/08/03 00:26:21;;;;;;;5.72;1.58;;;;;20.80;101089.00;;;;10426098;28;20229;-79
2022/08/03 00:31:22;;;;;;;4.22;1.33;;;;;20.80;101089.00;;;;10419935;28;20205;-79
2022/08/03 00:36:44;;;;;;;3.20;1.27;;;;;20.80;101083.00;;;;10428818;28;20775;-79
2022/08/03 00:41:47;;;;;;;2.40;1.35;;;;;20.60;101079.00;;;;10430425;28;20228;-79
2022/08/03 00:46:49;;;;;;;5.38;1.30;;;;;20.50;101075.00;;;;10456211;28;20200;-79
2022/08/03 00:51:51;;;;;;;6.13;1.65;;;;;20.50;101067.00;;;;10426420;28;20198;-79
2022/08/03 00:56:53;;;;;;;4.28;1.52;;;;;20.50;101061.00;;;;10441575;28;20232;-79
2022/08/03 01:02:01;;;;;;;7.55;1.58;;;;;20.40;101063.00;;;;10419230;28;20213;-79
2022/08/03 01:07:03;;;;;;;4.60;1.45;;;;;20.30;101058.00;;;;10423850;28;20854;-79
2022/08/03 01:12:34;;;;;;;8.70;2.20;;;;;20.20;101051.00;;;;10423132;28;20200;-79
2022/08/03 01:17:52;;;;;;;4.78;1.52;;;;;20.20;101054.00;;;;10429669;28;20218;-79
2022/08/03 01:23:13;;;;;;;4.45;1.70;;;;;20.10;101055.00;;;;10430547;28;20197;-79
2022/08/03 01:28:46;;;;;;;4.28;1.30;;;;;20.00;101047.00;;;;10449162;28;20205;-79
2022/08/03 01:34:04;;;;;;;5.60;1.90;;;;;20.00;101043.00;;;;10436094;28;20202;-79
2022/08/03 01:39:10;;;;;;;8.52;1.95;;;;;20.00;101051.00;;;;10417102;28;20225;-79
2022/08/03 01:44:13;;;;;;;4.32;1.60;;;;;20.00;101052.00;;;;10433478;28;20215;-79
2022/08/03 01:49:36;;;;;;;5.50;1.88;;;;;19.90;101036.00;;;;10426422;28;20351;-79
2022/08/03 01:54:42;;;;;;;4.57;1.90;;;;;19.90;101040.00;;;;10421670;28;20205;-79
2022/08/03 01:59:47;;;;;;;6.95;2.05;;;;;19.90;101034.00;;;;10440035;28;20267;-79
2022/08/03 02:04:51;;;;;;;4.72;1.60;;;;;19.80;101040.00;;;;10426693;28;20214;-79
2022/08/03 02:09:54;;;;;;;10.00;1.77;;;;;19.80;101035.00;;;;10426451;28;20201;-79
2022/08/03 02:14:59;;;;;;;4.50;1.75;;;;;19.70;101027.00;;;;10418550;28;20258;-79
2022/08/03 02:20:03;;;;;;;6.03;1.58;;;;;19.60;101033.00;;;;10430238;28;20566;-79
2022/08/03 02:25:10;;;;;;;12.05;2.20;;;;;19.60;101034.00;;;;10456647;28;20215;-79
2022/08/03 02:30:13;;;;;;;4.97;2.10;;;;;19.50;101037.00;;;;10431263;28;20236;-79
2022/08/03 02:35:18;;;;;;;7.75;1.85;;;;;19.40;101032.00;;;;10427944;28;20197;-79
2022/08/03 02:40:23;;;;;;;10.93;2.35;;;;;19.40;101032.00;;;;10415899;28;20243;-79
2022/08/03 02:45:27;;;;;;;9.60;2.80;;;;;19.30;101027.00;;;;10426187;28;20301;-79
2022/08/03 02:50:32;;;;;;;6.88;1.70;;;;;19.20;101015.00;;;;10422087;28;20237;-79
2022/08/03 02:55:35;;;;;;;4.72;1.95;;;;;19.10;101012.00;;;;10416413;28;20263;-79
2022/08/03 03:00:44;;;;;;;8.00;2.25;;;;;19.00;101013.00;;;;10404216;28;20233;-79
2022/08/03 03:05:47;;;;;;;6.47;1.73;;;;;19.00;101012.00;;;;10422529;28;20206;-79
2022/08/03 03:10:59;;;;;;;8.70;2.30;;;;;18.90;101011.00;;;;10428115;28;20205;-79
2022/08/03 03:16:06;;;;;;;7.78;2.38;;;;;18.90;101008.00;;;;10430711;28;20208;-79
2022/08/03 03:21:09;;;;;;;7.47;2.05;;;;;18.80;101007.00;;;;10412877;28;20231;-79
2022/08/03 03:26:13;;;;;;;3.90;1.73;;;;;18.70;101010.00;;;;10433269;28;20202;-79
2022/08/03 03:31:15;;;;;;;5.72;1.92;;;;;18.70;101006.00;;;;10426610;28;20301;-79
2022/08/03 03:36:17;;;;;;;6.85;1.80;;;;;18.60;101003.00;;;;10428489;28;20251;-80
2022/08/03 03:41:20;;;;;;;9.45;2.17;;;;;18.60;101009.00;;;;10444921;28;20247;-79
2022/08/03 03:46:22;;;;;;;3.78;1.80;;;;;18.60;101005.00;;;;10413360;28;20204;-79
2022/08/03 03:51:24;;;;;;;5.00;1.80;;;;;18.50;101001.00;;;;10425538;28;20251;-79
2022/08/03 03:56:27;;;;;;;8.05;2.00;;;;;18.40;101004.00;;;;10434621;28;20636;-79
2022/08/03 04:01:30;;;;;;;4.00;1.70;;;;;18.30;101010.00;;;;10428708;28;20241;-79
2022/08/03 04:11:54;;;;;;;6.07;2.47;;;;;18.30;101005.00;;;;10434397;28;20703;-79
2022/08/03 04:17:01;;;;;;;4.22;2.00;;;;;18.20;101011.00;;;;10415039;28;20217;-79
2022/08/03 04:22:08;;;;;;;6.35;1.98;;;;;18.20;101016.00;;;;10460392;28;20201;-79
2022/08/03 04:27:12;;;;;;;5.18;2.20;;;;;18.20;101017.00;;;;10434282;28;20237;-79
2022/08/03 04:32:16;;;;;;;3.58;1.83;;;;;18.30;101018.00;;;;10436633;28;20227;-79
2022/08/03 04:37:38;;;;;;;6.28;1.92;;;;;18.30;101019.00;;;;10440226;28;20220;-79
2022/08/03 04:42:42;;;;;;;5.10;2.20;;;;;18.40;101021.00;;;;10407024;28;20206;-79
2022/08/03 04:47:44;;;;;;;5.90;2.20;;;;;18.50;101028.00;;;;10434460;28;20205;-79
2022/08/03 04:52:47;;;;;;;3.78;2.08;;;;;18.70;101024.00;;;;10423243;28;20202;-79
2022/08/03 04:57:49;;;;;;;5.35;1.83;;;;;18.80;101034.00;;;;10410763;28;20275;-79
2022/08/03 05:02:52;;;;;;;8.15;1.98;;;;;19.00;101036.00;;;;10442247;28;20255;-79
2022/08/03 05:07:55;;;;;;;5.35;1.77;;;;;19.30;101035.00;;;;10424015;28;20198;-79
2022/08/03 05:12:58;;;;;;;4.97;1.80;;;;;19.60;101038.00;;;;10440920;28;20190;-79
2022/08/03 05:18:00;;;;;;;7.65;2.15;;;;;19.90;101043.00;;;;10400733;28;20308;-79
2022/08/03 05:23:02;;;;;;;7.53;2.03;;;;;20.20;101053.00;;;;10426872;28;20255;-79
2022/08/03 05:28:05;;;;;;;6.95;2.08;;;;;20.50;101047.00;;;;10441709;28;20206;-79
2022/08/03 05:33:07;;;;;;;5.68;1.80;;;;;20.80;101044.00;;;;10427086;28;20205;-79
2022/08/03 05:38:09;;;;;;;6.43;1.98;;;;;21.20;101046.00;;;;10444148;28;20221;-79
2022/08/03 05:43:11;;;;;;;8.27;1.70;;;;;21.60;101044.00;;;;10455092;28;20205;-79
2022/08/03 05:48:15;;;;;;;4.25;1.65;;;;;22.00;101050.00;;;;10455595;28;20537;-80
2022/08/03 05:53:17;;;;;;;8.15;1.83;;;;;22.40;101053.00;;;;10442276;28;20498;-80
2022/08/03 05:58:19;;;;;;;6.00;1.58;;;;;23.10;101048.00;;;;10424045;28;20420;-79
2022/08/03 06:03:22;;;;;;;8.32;2.00;;;;;23.90;101047.00;;;;10422013;28;20226;-80
2022/08/03 06:08:23;;;;;;;5.22;1.50;;;;;24.60;101044.00;;;;10433545;28;20227;-80
2022/08/03 06:13:25;;;;;;;5.75;1.80;;;;;25.00;101046.00;;;;10439289;28;20595;-80
2022/08/03 06:18:27;;;;;;;6.35;1.80;;;;;25.50;101052.00;;;;10408126;28;20240;-80
2022/08/03 06:23:29;;;;;;;7.90;1.90;;;;;25.90;101054.00;;;;10431548;28;20194;-80
2022/08/03 06:28:51;;;;;;;8.57;1.75;;;;;26.40;101052.00;;;;10399983;28;20209;-80
2022/08/03 06:33:55;;;;;;;8.98;1.77;;;;;26.80;101054.00;;;;10439606;28;20228;-80
2022/08/03 06:39:17;;;;;;;5.00;1.63;;;;;27.30;101058.00;;;;10425306;28;20885;-80
2022/08/03 06:44:19;;;;;;;7.22;1.63;;;;;27.50;101056.00;;;;10449082;28;20297;-80
2022/08/03 06:49:22;;;;;;;7.18;2.47;;;;;27.60;101062.00;;;;10459759;28;20228;-80
2022/08/03 06:54:24;;;;;;;3.95;1.25;;;;;27.70;101069.00;;;;10426968;28;20233;-80
2022/08/03 06:59:26;;;;;;;5.07;1.77;;;;;27.90;101069.00;;;;10412407;28;20313;-80
2022/08/03 07:04:49;;;;;;;7.20;1.98;;;;;28.30;101062.00;;;;10427700;28;20233;-80
2022/08/03 07:09:51;;;;;;;6.10;1.55;;;;;28.80;101071.00;;;;10421425;28;20193;-80
2022/08/03 07:14:59;;;;;;;8.95;1.88;;;;;29.10;101071.00;;;;10441630;28;20208;-80
2022/08/03 07:20:06;;;;;;;5.60;1.42;;;;;29.30;101086.00;;;;10434875;28;20328;-79
2022/08/03 07:25:09;;;;;;;5.53;1.30;;;;;29.40;101086.00;;;;10436252;28;20194;-79
2022/08/03 07:30:12;;;;;;;5.13;1.30;;;;;29.30;101081.00;;;;10439648;28;20289;-80
2022/08/03 07:35:14;;;;;;;4.85;1.58;;;;;29.70;101084.00;;;;10432426;28;20254;-80
2022/08/03 07:40:26;;;;;;;6.78;1.40;;;;;29.70;101092.00;;;;10434040;28;20206;-80
2022/08/03 07:45:32;;;;;;;5.13;1.25;;;;;29.70;101087.00;;;;10432648;28;20181;-79
2022/08/03 07:50:35;;;;;;;7.93;1.48;;;;;30.20;101087.00;;;;10424055;28;20182;-80
2022/08/03 07:55:37;;;;;;;7.18;1.50;;;;;30.70;101087.00;;;;10409997;28;20225;-80
2022/08/03 08:00:39;;;;;;;11.88;1.92;;;;;30.90;101077.00;;;;10420361;28;20248;-80
2022/08/03 08:05:41;;;;;;;6.97;1.88;;;;;30.90;101075.00;;;;10445715;28;20185;-80
2022/08/03 08:10:43;;;;;;;6.28;2.25;;;;;31.60;101070.00;;;;10453349;28;20185;-80
2022/08/03 08:16:00;;;;;;;7.38;1.55;;;;;32.10;101067.00;;;;10447319;28;20304;-80
2022/08/03 08:21:02;;;;;;;5.03;1.52;;;;;32.40;101068.00;;;;10409121;28;20753;-80
2022/08/03 08:26:05;;;;;;;7.40;1.95;;;;;32.60;101075.00;;;;10416348;28;20225;-80
2022/08/03 08:31:07;;;;;;;10.25;2.15;;;;;32.90;101059.00;;;;10443448;28;20218;-79
2022/08/03 08:36:09;;;;;;;10.95;1.88;;;;;33.20;101058.00;;;;10413075;28;20195;-80
2022/08/03 08:41:16;;;;;;;12.10;2.40;;;;;33.30;101050.00;;;;10464320;28;20579;-80
2022/08/03 08:46:19;;;;;;;9.50;1.95;;;;;33.80;101050.00;;;;10432940;28;20263;-81
2022/08/03 08:51:36;;;;;;;8.25;1.77;;;;;34.30;101058.00;;;;10439668;28;20186;-81
2022/08/03 08:57:01;;;;;;;7.75;1.75;;;;;34.70;101055.00;;;;10427228;28;20314;-81
2022/08/03 09:02:03;;;;;;;6.65;1.60;;;;;34.80;101049.00;;;;10427631;28;20241;-80
2022/08/03 09:07:06;;;;;;;6.57;1.70;;;;;35.10;101045.00;;;;10436287;28;20194;-81
2022/08/03 09:12:21;;;;;;;7.55;1.70;;;;;35.30;101052.00;;;;10419887;28;20289;-80
2022/08/03 09:17:42;;;;;;;5.22;1.98;;;;;35.50;101042.00;;;;10463215;28;20209;-81
2022/08/03 09:23:10;;;;;;;5.95;2.10;;;;;35.90;101050.00;;;;10448124;28;20740;-81
2022/08/03 09:28:35;;;;;;;3.28;1.15;;;;;36.30;101049.00;;;;10408719;28;20189;-81
2022/08/03 09:34:00;;;;;;;5.13;1.60;;;;;36.80;101050.00;;;;10417207;28;20215;-81
2022/08/03 09:39:05;;;;;;;6.72;1.30;;;;;37.10;101048.00;;;;10428718;28;20219;-81
2022/08/03 09:44:08;;;;;;;6.38;1.48;;;;;36.80;101051.00;;;;10411132;28;20243;-80
2022/08/03 09:49:26;;;;;;;9.23;1.60;;;;;36.90;101038.00;;;;10442126;28;20244;-81
2022/08/03 09:54:30;;;;;;;6.78;1.35;;;;;37.40;101038.00;;;;10461011;28;20770;-81
2022/08/03 09:59:33;;;;;;;5.60;1.23;;;;;37.20;101044.00;;;;10440082;28;20190;-80
2022/08/03 10:04:46;;;;;;;4.38;1.55;;;;;37.30;101034.00;;;;10427059;28;20217;-80
2022/08/03 10:09:59;;;;;;;5.55;1.38;;;;;37.50;101032.00;;;;10442182;28;20563;-81
2022/08/03 10:15:22;;;;;;;7.95;1.50;;;;;37.70;101033.00;;;;10459216;28;20200;-81
2022/08/03 10:21:02;;;;;;;7.28;1.50;;;;;37.90;101021.00;;;;10422523;28;20649;-82
2022/08/03 10:26:06;;;;;;;6.22;1.50;;;;;37.80;101021.00;;;;10456665;28;20254;-81
2022/08/03 10:31:09;;;;;;;2.13;1.15;;;;;37.90;101012.00;;;;10434332;28;20966;-81
2022/08/03 10:36:13;;;;;;;5.22;1.35;;;;;38.40;101010.00;;;;10417069;28;20209;-81
2022/08/03 10:41:16;;;;;;;5.43;1.20;;;;;38.60;101001.00;;;;10427375;28;20654;-81
2022/08/03 10:46:20;;;;;;;6.80;1.05;;;;;39.00;101002.00;;;;10424541;28;20193;-81
2022/08/03 10:51:22;;;;;;;5.25;1.15;;;;;39.10;100996.00;;;;10425404;28;20580;-81
2022/08/03 11:01:56;;;;;;;3.72;1.23;;;;;38.20;100986.00;;;;10446752;28;20217;-81
2022/08/03 11:07:24;;;;;;;5.20;1.20;;;;;38.80;100975.00;;;;10417573;28;20197;-81
2022/08/03 11:12:28;;;;;;;2.15;0.93;;;;;39.40;100976.00;;;;10419847;28;20695;-82
2022/08/03 11:17:34;;;;;;;2.40;1.05;;;;;40.10;100972.00;;;;10429007;28;20221;-82
2022/08/03 11:22:58;;;;;;;2.70;1.15;;;;;40.50;100962.00;;;;10455878;28;20579;-82
2022/08/03 11:28:28;;;;;;;5.65;1.05;;;;;40.50;100978.00;;;;10429191;28;20193;-82
2022/08/03 11:33:31;;;;;;;3.75;1.05;;;;;40.60;100966.00;;;;10434595;28;20660;-82
2022/08/03 11:38:33;;;;;;;5.90;1.15;;;;;40.70;100969.00;;;;10462285;28;20185;-82
2022/08/03 11:43:36;;;;;;;3.88;1.10;;;;;40.30;100966.00;;;;10433339;28;20252;-82
2022/08/03 11:48:42;;;;;;;6.22;1.10;;;;;40.30;100956.00;;;;10433296;28;20296;-82
2022/08/03 11:53:46;;;;;;;3.58;1.02;;;;;40.30;100960.00;;;;10466471;28;20659;-82
2022/08/03 11:58:52;;;;;;;1.38;1.00;;;;;41.00;100960.00;;;;10436936;28;20642;-82
2022/08/03 12:04:15;;;;;;;3.17;1.02;;;;;40.80;100968.00;;;;10423215;28;20220;-82
2022/08/03 12:09:17;;;;;;;3.08;1.00;;;;;40.70;100964.00;;;;10435859;28;20209;-82
2022/08/03 12:14:22;;;;;;;4.32;1.05;;;;;40.90;100957.00;;;;10430831;28;20255;-82
2022/08/03 12:19:44;;;;;;;3.05;0.93;;;;;41.10;100958.00;;;;10426675;28;20194;-82
2022/08/03 12:24:46;;;;;;;3.80;0.82;;;;;41.30;100951.00;;;;10444393;28;20188;-81
2022/08/03 12:29:52;;;;;;;1.88;0.70;;;;;41.50;100956.00;;;;10421587;28;20426;-81
2022/08/03 12:35:00;;;;;;;3.22;1.10;;;;;41.70;100949.00;;;;10421444;28;20198;-82
2022/08/03 12:40:05;;;;;;;1.95;0.93;;;;;38.80;100954.00;;;;10447410;28;20318;-79
2022/08/03 12:45:38;;;;;;;1.77;0.90;;;;;39.30;100932.00;;;;10437804;28;20199;-81
2022/08/03 12:50:40;;;;;;;1.48;0.60;;;;;39.90;100936.00;;;;10445721;28;20239;-81
2022/08/03 12:55:42;;;;;;;3.03;1.00;;;;;38.40;100947.00;;;;10402118;28;20213;-80
2022/08/03 13:01:05;;;;;;;2.17;1.00;;;;;36.60;100936.00;;;;10449951;28;20247;-81
2022/08/03 13:06:16;;;;;;;1.73;0.90;;;;;38.70;100930.00;;;;10419195;28;20657;-81
2022/08/03 13:11:25;;;;;;;5.00;0.90;;;;;40.20;100933.00;;;;10430062;28;20717;-81
2022/08/03 13:16:48;;;;;;;4.05;1.08;;;;;40.70;100942.00;;;;10443650;28;20201;-81
2022/08/03 13:21:50;;;;;;;3.58;0.90;;;;;40.50;100924.00;;;;10449016;28;20193;-81
2022/08/03 13:27:06;;;;;;;2.50;1.23;;;;;39.70;100915.00;;;;10406320;28;20230;-81
2022/08/03 13:32:28;;;;;;;2.95;0.90;;;;;39.90;100918.00;;;;10429308;28;20314;-81
2022/08/03 13:37:31;;;;;;;3.28;1.05;;;;;41.30;100911.00;;;;10429743;28;20212;-81
2022/08/03 13:42:34;;;;;;;1.60;0.80;;;;;40.40;100920.00;;;;10448220;28;20190;-81
2022/08/03 13:47:36;;;;;;;2.95;0.90;;;;;39.70;100913.00;;;;10441231;28;20177;-81
2022/08/03 13:52:38;;;;;;;2.85;0.73;;;;;41.20;100898.00;;;;10461756;28;20213;-81
2022/08/03 13:57:40;;;;;;;1.75;0.70;;;;;42.30;100893.00;;;;10435707;28;20231;-82
2022/08/03 14:03:03;;;;;;;4.47;1.05;;;;;44.60;100887.00;;;;10427879;28;20300;-81
2022/08/03 14:08:14;;;;;;;3.83;1.08;;;;;43.40;100906.00;;;;10431231;28;20213;-81
2022/08/03 14:13:17;;;;;;;4.43;0.90;;;;;45.10;100885.00;;;;10416334;28;20209;-80
2022/08/03 14:18:20;;;;;;;2.90;0.70;;;;;45.40;100887.00;;;;10419220;28;20208;-80
2022/08/03 14:23:36;;;;;;;3.88;1.02;;;;;45.10;100879.00;;;;10421101;28;20203;-82
2022/08/03 14:28:39;;;;;;;4.90;0.93;;;;;44.30;100881.00;;;;10455851;28;20193;-81
2022/08/03 14:33:41;;;;;;;3.17;1.10;;;;;39.90;100863.00;;;;10417965;28;20189;-81
2022/08/03 14:38:43;;;;;;;3.97;1.02;;;;;37.50;100849.00;;;;10418721;28;20718;-81
2022/08/03 14:43:45;;;;;;;2.92;0.70;;;;;43.90;100836.00;;;;10428114;28;20190;-81
2022/08/03 14:49:04;;;;;;;4.50;1.05;;;;;45.40;100837.00;;;;10455693;28;20911;-82
2022/08/03 14:54:29;;;;;;;3.25;0.82;;;;;47.00;100843.00;;;;10440414;28;20191;-81
2022/08/03 14:59:31;;;;;;;3.88;0.98;;;;;47.30;100857.00;;;;10422188;28;20645;-81
2022/08/03 15:04:53;;;;;;;6.50;1.00;;;;;46.20;100828.00;;;;10483280;28;20280;-81
2022/08/03 15:09:55;;;;;;;3.85;1.10;;;;;45.10;100846.00;;;;10413764;28;20213;-82
2022/08/03 15:14:57;;;;;;;3.80;1.13;;;;;44.70;100832.00;;;;10424615;28;20194;-81
2022/08/03 15:19:59;;;;;;;4.30;0.80;;;;;42.50;100820.00;;;;10450420;28;20181;-80
2022/08/03 15:25:21;;;;;;;3.22;1.02;;;;;41.40;100822.00;;;;10448810;28;20216;-81
2022/08/03 15:30:43;;;;;;;1.58;0.80;;;;;44.60;100797.00;;;;10448483;28;20537;-81
2022/08/03 15:35:46;;;;;;;3.95;1.85;;;;;40.20;100808.00;;;;10450956;28;20201;-81
2022/08/03 15:40:48;;;;;;;4.38;0.93;;;;;39.90;100798.00;;;;10478316;28;20637;-80
2022/08/03 15:45:50;;;;;;;3.25;1.00;;;;;44.70;100781.00;;;;10445202;28;20198;-81
2022/08/03 15:51:13;;;;;;;3.53;0.82;;;;;46.40;100781.00;;;;10439977;28;20205;-81
2022/08/03 15:56:15;;;;;;;2.67;0.90;;;;;41.70;100800.00;;;;10452229;28;20255;-80
2022/08/03 16:01:20;;;;;;;3.60;0.90;;;;;38.90;100793.00;;;;10452840;28;20219;-80
2022/08/03 16:06:24;;;;;;;4.10;1.17;;;;;36.30;100784.00;;;;10412354;28;20195;-80
2022/08/03 16:11:35;;;;;;;3.10;0.88;;;;;35.30;100780.00;;;;10440307;28;20309;-80
2022/08/03 16:16:39;;;;;;;2.00;1.00;;;;;34.70;100768.00;;;;10396871;28;20206;-80
2022/08/03 16:21:41;;;;;;;4.13;1.20;;;;;34.80;100763.00;;;;10449677;28;20228;-81
2022/08/03 16:26:49;;;;;;;5.00;0.93;;;;;34.80;100762.00;;;;10451419;28;20236;-79
2022/08/03 16:31:52;;;;;;;6.10;1.00;;;;;34.10;100762.00;;;;10427741;28;20753;-81
2022/08/03 16:36:54;;;;;;;3.65;0.65;;;;;34.00;100762.00;;;;10419206;28;20194;-80
2022/08/03 16:41:57;;;;;;;3.22;1.20;;;;;34.20;100760.00;;;;10407150;28;20193;-79
2022/08/03 16:47:02;;;;;;;3.28;0.70;;;;;34.10;100765.00;;;;10435436;28;20288;-81
2022/08/03 16:52:04;;;;;;;2.60;0.80;;;;;33.90;100767.00;;;;10426451;28;20221;-80
2022/08/03 16:57:08;;;;;;;3.28;1.23;;;;;33.90;100759.00;;;;10442890;28;20193;-79
2022/08/03 17:02:20;;;;;;;2.70;0.98;;;;;34.00;100743.00;;;;10447842;28;20304;-79
2022/08/03 17:07:27;;;;;;;5.22;0.85;;;;;33.80;100752.00;;;;10453068;28;20220;-81
2022/08/03 17:12:31;;;;;;;4.07;0.90;;;;;33.80;100757.00;;;;10404248;28;20287;-81
2022/08/03 17:17:34;;;;;;;3.20;1.20;;;;;33.70;100745.00;;;;10440222;28;20202;-81
2022/08/03 17:22:59;;;;;;;1.58;1.10;;;;;33.40;100748.00;;;;10463715;28;20211;-80
2022/08/03 17:28:02;;;;;;;4.43;1.00;;;;;33.30;100745.00;;;;10464279;28;20204;-80
2022/08/03 17:33:26;;;;;;;3.67;0.90;;;;;33.10;100746.00;;;;10412406;28;20190;-80
2022/08/03 17:38:38;;;;;;;3.88;1.02;;;;;32.80;100745.00;;;;10422303;28;20686;-80
2022/08/03 17:43:45;;;;;;;4.80;0.95;;;;;32.70;100754.00;;;;10435201;28;20248;-80
2022/08/03 17:49:07;;;;;;;6.75;1.30;;;;;32.60;100751.00;;;;10435573;28;20692;-80
2022/08/03 17:55:17;;;;;;;4.57;1.42;;;;;32.40;100754.00;;;;10444899;28;20220;-80
2022/08/03 18:06:06;;;;;;;3.33;1.08;;;;;32.00;100757.00;;;;10466281;28;20599;-80
2022/08/03 18:11:20;;;;;;;3.63;1.00;;;;;31.90;100746.00;;;;10461210;28;20193;-80
2022/08/03 18:16:48;;;;;;;4.82;1.92;;;;;31.70;100754.00;;;;10427479;28;20668;-80
2022/08/03 18:21:50;;;;;;;2.45;1.05;;;;;31.60;100750.00;;;;10433136;28;20235;-80
2022/08/03 18:27:08;;;;;;;3.38;1.00;;;;;31.50;100758.00;;;;10440090;28;20217;-80
2022/08/03 18:32:10;;;;;;;5.53;1.00;;;;;31.20;100758.00;;;;10428245;28;20209;-80
2022/08/03 18:37:23;;;;;;;4.15;1.10;;;;;31.00;100758.00;;;;10428019;28;20196;-80
2022/08/03 18:42:27;;;;;;;4.70;1.38;;;;;30.90;100766.00;;;;10465392;28;20174;-80
2022/08/03 18:47:47;;;;;;;4.20;1.35;;;;;30.70;100763.00;;;;10456318;28;20674;-80
2022/08/03 18:53:02;;;;;;;5.03;1.15;;;;;30.50;100761.00;;;;10453336;28;20224;-80
2022/08/03 18:58:35;;;;;;;4.32;1.05;;;;;30.10;100760.00;;;;10442136;28;20192;-79
2022/08/03 19:03:45;;;;;;;5.10;1.17;;;;;29.90;100761.00;;;;10450145;28;20213;-80
2022/08/03 19:09:01;;;;;;;5.32;0.98;;;;;29.60;100770.00;;;;10462200;28;20177;-79
2022/08/03 19:14:05;;;;;;;5.82;1.30;;;;;29.20;100763.00;;;;10433893;28;20279;-79
2022/08/03 19:19:15;;;;;;;4.97;1.10;;;;;29.00;100762.00;;;;10451709;28;20218;-80
2022/08/03 19:24:21;;;;;;;4.28;1.33;;;;;28.80;100766.00;;;;10448137;28;20220;-79
2022/08/03 19:29:26;;;;;;;1.25;0.88;;;;;28.50;100763.00;;;;10466191;28;20206;-79
2022/08/03 19:34:50;;;;;;;8.25;1.33;;;;;28.30;100769.00;;;;10450811;28;20193;-79
2022/08/03 19:39:54;;;;;;;3.60;1.10;;;;;28.00;100770.00;;;;10445929;28;20193;-80
2022/08/03 19:45:07;;;;;;;5.78;1.73;;;;;27.70;100775.00;;;;10459844;28;20201;-80
2022/08/03 19:50:18;;;;;;;3.90;1.67;;;;;27.40;100786.00;;;;10473093;28;20208;-79
2022/08/03 19:55:21;;;;;;;9.77;1.77;;;;;27.20;100792.00;;;;10463564;28;20186;-79
2022/08/03 20:00:24;;;;;;;3.80;1.65;;;;;26.90;100799.00;;;;10456768;28;20445;-79
2022/08/03 20:05:28;;;;;;;10.18;1.92;;;;;26.80;100799.00;;;;10439229;28;20185;-79
2022/08/03 20:10:48;;;;;;;5.03;1.70;;;;;26.70;100797.00;;;;10460902;28;20205;-79
2022/08/03 20:15:52;;;;;;;3.78;1.58;;;;;26.50;100797.00;;;;10443163;28;20214;-79
2022/08/03 20:20:57;;;;;;;9.57;2.40;;;;;26.40;100798.00;;;;10436698;28;20197;-79
2022/08/03 20:26:03;;;;;;;8.68;1.70;;;;;26.20;100796.00;;;;10461685;28;20266;-79
2022/08/03 20:31:10;;;;;;;6.20;1.80;;;;;26.10;100804.00;;;;10414747;28;20260;-79
2022/08/03 20:36:13;;;;;;;6.68;2.22;;;;;26.10;100803.00;;;;10433758;28;20201;-79
2022/08/03 20:41:19;;;;;;;5.60;1.80;;;;;26.10;100806.00;;;;10459987;28;20775;-78
2022/08/03 20:46:21;;;;;;;5.72;1.98;;;;;25.90;100815.00;;;;10453349;28;20258;-79
2022/08/03 20:51:35;;;;;;;6.22;2.08;;;;;25.80;100816.00;;;;10444331;28;20210;-78
2022/08/03 20:56:55;;;;;;;8.63;2.08;;;;;25.70;100808.00;;;;10473934;28;20185;-79
2022/08/03 21:01:57;;;;;;;3.97;2.10;;;;;25.70;100810.00;;;;10439647;28;20218;-79
2022/08/03 21:07:06;;;;;;;5.85;1.75;;;;;25.60;100812.00;;;;10441110;28;20221;-79
2022/08/03 21:12:27;;;;;;;4.85;1.80;;;;;25.40;100805.00;;;;10443332;28;20262;-78
2022/08/03 21:17:32;;;;;;;7.53;2.35;;;;;25.30;100802.00;;;;10458310;28;20548;-79
2022/08/03 21:22:45;;;;;;;4.57;2.28;;;;;25.30;100806.00;;;;10441049;28;20181;-79
2022/08/03 21:27:50;;;;;;;8.57;2.78;;;;;25.20;100800.00;;;;10461794;28;20187;-79
2022/08/03 21:32:55;;;;;;;6.78;2.30;;;;;25.10;100806.00;;;;10412510;28;20217;-78
2022/08/03 21:43:18;;;;;;;7.40;2.35;;;;;24.60;100810.00;;;;10476800;28;20211;-79
2022/08/03 21:48:24;;;;;;;5.97;2.13;;;;;24.50;100803.00;;;;10419192;28;20194;-79
2022/08/03 21:53:30;;;;;;;8.32;2.20;;;;;24.50;100808.00;;;;10429505;28;20210;-79
2022/08/03 21:58:53;;;;;;;7.55;2.20;;;;;24.40;100791.00;;;;10428355;28;20252;-78
2022/08/03 22:03:56;;;;;;;5.55;2.20;;;;;24.30;100792.00;;;;10424986;28;20679;-78
2022/08/03 22:08:59;;;;;;;6.63;2.15;;;;;24.20;100794.00;;;;10414070;28;20232;-78
2022/08/03 22:14:02;;;;;;;8.10;2.78;;;;;24.20;100776.00;;;;10406466;28;20248;-78
2022/08/03 22:19:04;;;;;;;7.78;2.53;;;;;24.10;100783.00;;;;10443599;28;20251;-78
2022/08/03 22:24:07;;;;;;;11.35;3.22;;;;;24.00;100781.00;;;;10443000;28;20213;-78
2022/08/03 22:29:09;;;;;;;10.40;3.08;;;;;24.00;100786.00;;;;10435338;28;20617;-79
2022/08/03 22:34:11;;;;;;;5.13;2.20;;;;;23.90;100790.00;;;;10433039;28;20284;-79
2022/08/03 22:39:14;;;;;;;6.30;2.67;;;;;23.90;100792.00;;;;10452916;28;20288;-78
2022/08/03 22:44:27;;;;;;;6.95;2.42;;;;;23.90;100777.00;;;;10448277;28;20198;-79
2022/08/03 22:49:30;;;;;;;9.18;2.70;;;;;23.70;100782.00;;;;10442671;28;20224;-79
2022/08/03 22:54:34;;;;;;;7.32;2.30;;;;;23.60;100781.00;;;;10475682;28;20194;-80
2022/08/03 22:59:36;;;;;;;6.00;2.53;;;;;23.40;100778.00;;;;10443442;28;20189;-79
2022/08/03 23:04:43;;;;;;;5.45;2.85;;;;;23.20;100776.00;;;;10402525;28;20253;-79
2022/08/03 23:09:47;;;;;;;7.07;2.67;;;;;23.10;100774.00;;;;10413660;28;20214;-79
2022/08/03 23:14:55;;;;;;;7.15;2.70;;;;;23.00;100777.00;;;;10453455;28;20218;-79
2022/08/03 23:20:06;;;;;;;6.00;2.70;;;;;23.00;100776.00;;;;10414730;28;20660;-79
2022/08/03 23:25:09;;;;;;;5.38;2.88;;;;;22.80;100772.00;;;;10450786;28;20746;-79
2022/08/03 23:30:11;;;;;;;5.70;2.88;;;;;22.70;100775.00;;;;10423398;28;20242;-79
2022/08/03 23:41:00;;;;;;;9.80;2.95;;;;;22.50;100773.00;;;;10447073;28;20202;-79
2022/08/03 23:46:05;;;;;;;6.57;2.45;;;;;22.30;100775.00;;;;10440570;28;20273;-79
2022/08/03 23:51:22;;;;;;;6.30;3.35;;;;;22.20;100764.00;;;;10407962;28;20264;-79
2022/08/03 23:56:49;;;;;;;5.53;2.83;;;;;22.10;100760.00;;;;10454707;28;20228;-79
